Terminal Aerodrome Forecast
Issued by NWS Louisville, KY

Home | Current Version | Previous Version | Text Only | Print | Product List | Glossary On
Versions: 1 2 3 4 5 6 7 8 9 10 11 12 13 14 15 16 17 18 19 20 21 22 23 24 25 26
000
FTUS43 KLMK 222320
TAFBWG
TAF
KBWG 222320Z 2300/2324 16004KT P6SM SKC
     FM230800 18006KT P6SM FEW030 WS020/19040KT
     FM231300 20010G15KT P6SM BKN050 PROB30 2313/2319 5SM -SHRA BR
      SCT025 OVC050
     FM231900 21011KT 6SM -SHRA SCT025 BKN040 PROB30 2319/2324
      VRB15G25KT 2SM TSRA BKN025CB=

USA.gov is the U.S. government's official web portal to all federal, state and local government web resources and services.